Terminal Aerodrome Forecast
Issued by NWS Paducah, KY

Home | Current Version | Previous Version | Text Only | Print | Product List | Glossary On
Versions: 1 2 3 4 5 6 7 8 9 10 11 12 13 14 15 16 17 18 19 20 21
000
FTUS43 KPAH 231039 AAB
TAFPAH
TAF AMD
KPAH 231039Z 2311/2406 35013G23KT P6SM SCT020
     FM231300 34012G20KT P6SM OVC020
     FM240000 33004KT P6SM SKC=

USA.gov is the U.S. government's official web portal to all federal, state and local government web resources and services.